Pagrindinis puslapis
METAR-TAF:

METAR-TAF

Oro uostai :

Vientianas, Laosas

platuma: 17-57N, ilguma: 102-34E, Aukštis: 171 m

Dabartinis oras

Ataskaita buvo paskelbta 8 valandos ir 13 minutes, ne 13:00 UTC
Vėjas 2 kt iš Vakarų
Temperatūra 29°C
Drėgmė 66%
Slėgis 1010 hPa
Matomumas: 5000 m
Išsisklaidę debesys ne aukštis 5000 ft
rūkana

METAR: VLVT 121300Z 27002KT 5000 BR SCT050 29/22 Q1010 NOSIG

Laikas: 04:13 (21:13 UTC)

Prognozė

Ataskaita buvo paskelbta 4 valandos ir 13 minutes, ne 17:00 UTC
Prognozė galioja nuo 12 metu 18 UTC su 13 metu 18 UTC
Vėjas 2 kt iš Vakarų/Pietvakarių
Matomumas: 5000 m
Išsisklaidę debesys ne aukštis 5000 ft
Išsisklaidę debesys ne aukštis 10000 ft
rūkana

TAF: VLVT 121700Z 1218/1318 24002KT 5000 BR SCT050 SCT100

Orai ataskaitas ir orų prognozės (METAR, TAF).

turimą stotys yra geltonos ir raudonos taškus žemėlapyje.

Perkelti pele per norėdami pamatyti stoties vardą.

Tada spustelėkite, norėdami matyti oro stebėjimo ir prognozės.

Norėdami pakeisti žemėlapį: spustelėkite ant žalios mygtukų su juodo kryžiaus žemyn,; žalią mygtuką su brūkšneliu, jei norite nutolinti; arba žalių rodyklių gretimoms žemėlapius.


METAR-TAF: